Terminal Aerodrome Forecast
Issued by NWS Charleston, WV

Current Version | Previous Version | Text Only | Print | Product List | Glossary Off
Versions: 1 2 3 4 5 6 7 8 9 10 11 12 13 14 15 16 17 18 19 20 21 22 23 24

000
FTUS41 KRLX 260900 AAC
TAFHTS
TAF AMD
KHTS 260943Z 2610/2706 05004KT 1/2SM -RA FG BKN002
     FM261100 01005KT 1SM -RA BR OVC002
     FM261300 34006KT 5SM -RAPLSN BR OVC012
     FM261400 33007KT 3SM -SN OVC010
     FM261500 32007KT 1SM -SN OVC005
     FM261800 31008KT 2SM -SN OVC008
     FM262000 30009KT 6SM -SN OVC015
     FM262300 31007KT 5SM -SN BKN015
     FM270400 31004KT 6SM -SN BKN018=

USA.gov is the U.S. government's official web portal to all federal, state and local government web resources and services.